createdAt,value
2023-03-16T00:01:12.313Z,36.8
2023-03-16T00:07:06.468Z,36.8
2023-03-16T00:12:45.095Z,36.7
2023-03-16T00:18:39.125Z,36.7
2023-03-16T00:24:01.576Z,36.6
2023-03-16T00:29:23.670Z,36.6
2023-03-16T00:35:16.964Z,36.6
2023-03-16T00:41:10.053Z,36.6
2023-03-16T00:47:03.862Z,36.5
2023-03-16T00:52:25.885Z,36.5
2023-03-16T00:58:19.211Z,36.4
2023-03-16T01:03:57.382Z,36.4
2023-03-16T01:09:49.814Z,36.4
2023-03-16T01:14:55.753Z,36.4
2023-03-16T01:20:48.414Z,36.3
2023-03-16T01:25:54.120Z,36.3
2023-03-16T01:31:32.083Z,36.3
2023-03-16T01:37:26.132Z,36.3
2023-03-16T01:43:17.943Z,36.3
2023-03-16T01:48:41.419Z,36.2
2023-03-16T01:54:19.464Z,36.2
2023-03-16T02:00:11.644Z,36.1
2023-03-16T02:05:19.905Z,36.1
2023-03-16T02:10:57.917Z,36.3
2023-03-16T02:16:51.883Z,37.3
2023-03-16T02:22:29.276Z,38.3
2023-03-16T02:28:22.861Z,39.5
2023-03-16T02:34:16.130Z,40.7
2023-03-16T02:39:54.335Z,41.9
2023-03-16T02:45:32.571Z,43.1
2023-03-16T02:51:26.257Z,44.2
2023-03-16T02:57:18.839Z,45.5
2023-03-16T03:02:28.334Z,46.6
2023-03-16T03:08:05.010Z,47.7
2023-03-16T03:13:57.635Z,48.9
2023-03-16T03:19:50.298Z,50
2023-03-16T03:25:27.275Z,51.1
2023-03-16T03:31:20.150Z,52.2
2023-03-16T03:37:13.787Z,52.6
2023-03-16T03:42:35.223Z,52.6
2023-03-16T03:47:57.603Z,52.6
2023-03-16T03:53:20.025Z,52.6
2023-03-16T03:58:44.167Z,52.5
2023-03-16T04:04:38.748Z,52.5
2023-03-16T04:10:31.551Z,52.5
2023-03-16T04:16:08.911Z,52.4
2023-03-16T04:21:46.292Z,52.4
2023-03-16T04:38:24.767Z,52.3
2023-03-16T04:44:02.740Z,52.3
2023-03-16T04:49:40.324Z,52.3
2023-03-16T04:55:18.387Z,52.3
2023-03-16T05:01:11.396Z,52.3
2023-03-16T05:07:10.548Z,52.2
2023-03-16T05:12:47.272Z,52.2
2023-03-16T05:18:09.460Z,52.1
2023-03-16T05:24:02.327Z,52.1
2023-03-16T05:29:39.725Z,52.1
2023-03-16T05:35:04.067Z,52.1
2023-03-16T05:40:59.157Z,52
2023-03-16T05:58:09.657Z,51.9
2023-03-16T06:04:03.336Z,51.8
2023-03-16T06:09:57.295Z,51.8
2023-03-16T06:15:50.137Z,51.8
2023-03-16T06:21:42.021Z,51.7
2023-03-16T06:27:36.801Z,51.7
2023-03-16T06:33:29.881Z,51.7
2023-03-16T06:39:25.437Z,51.6
2023-03-16T06:45:06.378Z,51.6
2023-03-16T06:50:59.738Z,51.6
2023-03-16T06:56:38.122Z,51.4
2023-03-16T07:02:30.745Z,51.4
2023-03-16T07:08:23.474Z,51.3
2023-03-16T07:14:16.102Z,51.3
2023-03-16T07:20:14.001Z,51.3
2023-03-16T07:26:07.686Z,51.3
2023-03-16T07:32:22.492Z,51.2
2023-03-16T07:38:16.275Z,51.1
2023-03-16T07:43:37.755Z,51.1
2023-03-16T07:49:30.319Z,51.1
2023-03-16T07:55:09.796Z,51.1
2023-03-16T08:01:18.617Z,51
2023-03-16T08:07:12.876Z,50.9
2023-03-16T08:13:08.671Z,50.9
2023-03-16T08:18:46.401Z,50.8
2023-03-16T08:24:51.564Z,50.8
2023-03-16T08:30:45.383Z,50.8
2023-03-16T08:36:24.324Z,50.7
2023-03-16T08:42:13.591Z,50.6
2023-03-16T08:47:52.173Z,50.6
2023-03-16T08:53:29.292Z,50.6
2023-03-16T08:59:45.549Z,50.5
2023-03-16T09:05:40.041Z,50.5
2023-03-16T09:11:25.046Z,50.4
2023-03-16T09:17:19.022Z,50.4
2023-03-16T09:23:13.800Z,50.4
2023-03-16T09:29:10.518Z,50.4
2023-03-16T09:34:49.998Z,50.3
2023-03-16T09:40:47.044Z,50.3
2023-03-16T09:46:24.443Z,50.3
2023-03-16T09:51:55.504Z,50.2
2023-03-16T09:57:32.535Z,50.1
2023-03-16T10:03:10.078Z,50.1
2023-03-16T10:09:02.845Z,50.1
2023-03-16T10:14:55.388Z,50.1
2023-03-16T10:20:48.123Z,50
2023-03-16T10:26:40.609Z,49.9
2023-03-16T10:32:18.193Z,49.9
2023-03-16T10:37:58.508Z,49.9
2023-03-16T10:43:51.443Z,49.9
2023-03-16T10:49:47.166Z,49.8
2023-03-16T10:55:40.031Z,49.8
2023-03-16T11:01:33.004Z,49.8
2023-03-16T11:07:27.092Z,49.7
2023-03-16T11:13:33.343Z,49.7
2023-03-16T11:19:37.847Z,49.6
2023-03-16T11:25:30.892Z,49.6
2023-03-16T11:31:23.224Z,49.5
2023-03-16T11:37:35.562Z,49.5
2023-03-16T11:43:12.750Z,49.4
2023-03-16T11:49:05.057Z,49.4
2023-03-16T11:54:57.610Z,49.4
2023-03-16T12:00:44.272Z,49.4
2023-03-16T12:06:57.450Z,49.3
2023-03-16T12:12:34.915Z,49.3
2023-03-16T12:18:44.770Z,49.3
2023-03-16T12:24:37.762Z,49.2
2023-03-16T12:30:30.926Z,49.2
2023-03-16T12:36:09.020Z,49.1
2023-03-16T12:42:00.745Z,49.1
2023-03-16T12:47:53.866Z,49.1
2023-03-16T12:53:34.068Z,49
2023-03-16T12:59:11.853Z,49
2023-03-16T13:04:33.632Z,48.9
2023-03-16T13:10:16.730Z,48.9
2023-03-16T13:15:54.854Z,48.9
2023-03-16T13:21:51.850Z,48.9
2023-03-16T13:27:45.597Z,48.8
2023-03-16T13:33:07.815Z,48.8
2023-03-16T13:38:14.827Z,48.8
2023-03-16T13:43:56.230Z,48.7
2023-03-16T13:49:33.688Z,48.7
2023-03-16T13:55:09.870Z,48.6
2023-03-16T14:00:48.539Z,48.6
2023-03-16T14:06:26.208Z,48.6
2023-03-16T14:12:07.209Z,48.5
2023-03-16T14:18:05.190Z,48.4
2023-03-16T14:24:06.055Z,48.4
2023-03-16T14:29:59.094Z,48.4
2023-03-16T14:35:53.764Z,48.4
2023-03-16T14:41:31.799Z,48.3
2023-03-16T14:47:25.591Z,48.3
2023-03-16T14:53:03.168Z,48.3
2023-03-16T14:58:56.457Z,48.2
2023-03-16T15:05:07.286Z,48.2
2023-03-16T15:11:02.831Z,48.1
2023-03-16T15:16:40.076Z,48.1
2023-03-16T15:22:31.966Z,48.1
2023-03-16T15:28:09.675Z,48.1
2023-03-16T15:34:02.461Z,48
2023-03-16T15:39:40.268Z,47.9
2023-03-16T15:45:45.133Z,47.9
2023-03-16T15:51:44.625Z,47.9
2023-03-16T15:57:59.112Z,47.9
2023-03-16T16:03:52.915Z,47.8
2023-03-16T16:09:29.388Z,47.8
2023-03-16T16:15:05.309Z,47.8
2023-03-16T16:21:12.223Z,47.7
2023-03-16T16:27:04.813Z,47.7
2023-03-16T16:32:27.345Z,47.6
2023-03-16T16:37:30.599Z,47.6
2023-03-16T16:42:53.232Z,47.6
2023-03-16T16:47:45.824Z,47.6
2023-03-16T16:53:07.703Z,47.5
2023-03-16T16:58:40.944Z,47.4
2023-03-16T17:04:05.503Z,47.4
2023-03-16T17:09:13.024Z,47.4
2023-03-16T17:14:35.293Z,47.4
2023-03-16T17:20:14.117Z,47.3
2023-03-16T17:26:08.075Z,47.3
2023-03-16T17:31:30.902Z,47.3
2023-03-16T17:36:53.824Z,47.2
2023-03-16T17:42:37.245Z,47.1
2023-03-16T17:48:30.146Z,47.1
2023-03-16T17:54:23.610Z,47.1
2023-03-16T18:00:01.566Z,47.1
2023-03-16T18:05:41.677Z,47
2023-03-16T18:11:35.659Z,46.9
2023-03-16T18:16:58.485Z,46.9
2023-03-16T18:22:20.639Z,46.9
2023-03-16T18:28:15.396Z,46.9
2023-03-16T18:34:09.708Z,46.8
2023-03-16T18:40:02.227Z,46.8
2023-03-16T18:45:39.912Z,46.8
2023-03-16T18:51:18.490Z,46.7
2023-03-16T18:57:11.779Z,46.7
2023-03-16T19:02:33.784Z,46.6
2023-03-16T19:07:43.388Z,46.6
2023-03-16T19:13:04.366Z,46.6
2023-03-16T19:18:43.124Z,46.5
2023-03-16T19:24:05.196Z,46.5
2023-03-16T19:29:58.656Z,46.4
2023-03-16T19:35:20.971Z,46.4
2023-03-16T19:41:12.306Z,46.4
2023-03-16T19:47:06.234Z,46.3
2023-03-16T19:52:59.046Z,46.3
2023-03-16T19:58:52.268Z,46.3
2023-03-16T20:04:45.110Z,46.2
2023-03-16T20:10:23.054Z,46.2
2023-03-16T20:16:16.716Z,46.2
2023-03-16T20:21:39.703Z,46.1
2023-03-16T20:27:01.127Z,46.1
2023-03-16T20:32:54.417Z,46.1
2023-03-16T20:38:32.596Z,46
2023-03-16T20:44:11.259Z,45.9
2023-03-16T20:49:48.434Z,45.9
2023-03-16T20:55:09.756Z,45.9
2023-03-16T21:01:03.151Z,45.9
2023-03-16T21:06:56.854Z,45.8
2023-03-16T21:12:58.497Z,45.8
2023-03-16T21:18:21.592Z,45.8
2023-03-16T21:24:14.191Z,45.7
2023-03-16T21:30:07.663Z,45.7
2023-03-16T21:36:00.819Z,45.6
2023-03-16T21:41:55.425Z,45.6
2023-03-16T21:47:49.411Z,45.6
2023-03-16T21:53:42.605Z,45.5
2023-03-16T21:59:06.486Z,45.5
2023-03-16T22:05:12.596Z,45.4
2023-03-16T22:11:06.210Z,45.4
2023-03-16T22:16:43.681Z,45.3
2023-03-16T22:22:37.030Z,45.3
2023-03-16T22:28:14.830Z,45.3
2023-03-16T22:33:51.881Z,45.3
2023-03-16T22:39:44.901Z,45.2
2023-03-16T22:45:36.852Z,45.2
2023-03-16T22:51:14.512Z,45.1
2023-03-16T22:57:08.269Z,45.1
2023-03-16T23:03:01.980Z,45.1
2023-03-16T23:08:55.494Z,45
2023-03-16T23:14:35.072Z,45
2023-03-16T23:20:41.286Z,44.9
2023-03-16T23:26:41.533Z,44.9
2023-03-16T23:32:19.799Z,44.9
2023-03-16T23:37:57.694Z,44.9
2023-03-16T23:43:34.652Z,44.8
2023-03-16T23:49:12.520Z,44.8
2023-03-16T23:54:49.974Z,44.8
